Time;durP1;ratioP1;P1;durP2;ratioP2;P2;SDS_P1;SDS_P2;PMS_P1;PMS_P2;Temp;Humidity;BMP_temperature;BMP_pressure;BME280_temperature;BME280_humidity;BME280_pressure;Samples;Min_cycle;Max_cycle;Signal;HPM_P1;HPM_P2
2021/01/16 00:00:54;;;;;;;30.38;18.05;;;;;;;;;;5062476;28;20358;-80
2021/01/16 00:03:20;;;;;;;31.73;17.13;;;;;;;;;;5063623;28;20037;-80
2021/01/16 00:05:47;;;;;;;30.75;17.20;;;;;;;;;;5052635;28;20013;-79
2021/01/16 00:08:15;;;;;;;34.85;18.15;;;;;;;;;;5052501;28;20033;-80
2021/01/16 00:10:45;;;;;;;27.15;16.52;;;;;;;;;;5052774;28;20525;-80
2021/01/16 00:13:11;;;;;;;;;;;;;;;;;;5054244;28;20067;-80
2021/01/16 00:15:37;;;;;;;26.95;16.52;;;;;;;;;;5052899;28;19909;-80
2021/01/16 00:18:05;;;;;;;25.67;16.23;;;;;;;;;;5052593;28;20025;-80
2021/01/16 00:20:35;;;;;;;29.83;17.13;;;;;;;;;;5053967;28;20030;-80
2021/01/16 00:23:01;;;;;;;42.50;20.63;;;;;;;;;;5052473;28;20025;-81
2021/01/16 00:25:27;;;;;;;31.75;18.33;;;;;;;;;;5052691;28;20017;-80
2021/01/16 00:27:53;;;;;;;26.45;16.52;;;;;;;;;;5053885;28;20017;-80
2021/01/16 00:30:21;;;;;;;28.67;15.77;;;;;;;;;;5053967;28;20017;-80
2021/01/16 00:32:47;;;;;;;29.17;16.35;;;;;;;;;;5052557;28;20074;-80
2021/01/16 00:35:16;;;;;;;31.52;17.80;;;;;;;;;;5052297;28;20021;-80
2021/01/16 00:37:43;;;;;;;26.67;16.33;;;;;;;;;;5053805;28;20342;-80
2021/01/16 00:40:13;;;;;;;26.80;17.02;;;;;;;;;;5053698;28;20067;-80
2021/01/16 00:42:40;;;;;;;28.67;16.20;;;;;;;;;;5052271;28;20041;-80
2021/01/16 00:45:07;;;;;;;28.73;17.27;;;;;;;;;;5053209;28;20020;-80
2021/01/16 00:47:34;;;;;;;28.15;15.75;;;;;;;;;;5052290;28;20032;-79
2021/01/16 00:50:00;;;;;;;28.48;16.88;;;;;;;;;;5051693;28;20021;-80
2021/01/16 00:52:26;;;;;;;28.77;16.52;;;;;;;;;;5053687;28;20017;-79
2021/01/16 00:54:52;;;;;;;38.95;20.58;;;;;;;;;;5051661;28;20492;-79
2021/01/16 00:57:18;;;;;;;26.75;16.05;;;;;;;;;;5051823;28;20276;-80
2021/01/16 00:59:44;;;;;;;33.88;19.02;;;;;;;;;;5052955;28;20048;-80
2021/01/16 01:02:10;;;;;;;36.80;19.63;;;;;;;;;;5050649;28;20112;-79
2021/01/16 01:04:36;;;;;;;33.08;18.27;;;;;;;;;;5052012;28;20029;-79
2021/01/16 01:07:04;;;;;;;34.13;19.05;;;;;;;;;;5051444;28;20021;-79
2021/01/16 01:09:30;;;;;;;27.73;15.73;;;;;;;;;;5051823;28;20461;-79
2021/01/16 01:11:56;;;;;;;26.02;15.80;;;;;;;;;;5053071;28;20473;-79
2021/01/16 01:14:22;;;;;;;23.50;13.52;;;;;;;;;;5052477;28;20021;-79
2021/01/16 01:16:48;;;;;;;26.20;15.25;;;;;;;;;;5051907;28;20526;-79
2021/01/16 01:19:14;;;;;;;24.00;14.75;;;;;;;;;;5051444;28;20025;-80
2021/01/16 01:21:40;;;;;;;29.02;14.75;;;;;;;;;;5051605;28;20017;-79
2021/01/16 01:24:06;;;;;;;22.58;14.50;;;;;;;;;;5052745;28;20025;-80
2021/01/16 01:26:32;;;;;;;26.08;14.55;;;;;;;;;;5053051;28;20353;-80
2021/01/16 01:28:58;;;;;;;26.70;15.68;;;;;;;;;;5052706;28;20473;-80
2021/01/16 01:31:24;;;;;;;21.58;13.00;;;;;;;;;;5051227;28;20021;-79
2021/01/16 01:33:50;;;;;;;24.00;14.20;;;;;;;;;;5051454;28;20028;-80
2021/01/16 01:36:16;;;;;;;26.23;13.75;;;;;;;;;;5052410;28;20480;-80
2021/01/16 01:38:42;;;;;;;30.02;16.17;;;;;;;;;;5051255;28;20025;-79
2021/01/16 01:41:08;;;;;;;27.05;15.32;;;;;;;;;;5051054;28;20028;-79
2021/01/16 01:43:34;;;;;;;28.88;15.77;;;;;;;;;;5050969;28;20489;-80
2021/01/16 01:46:00;;;;;;;28.20;16.45;;;;;;;;;;5052231;28;20041;-80
2021/01/16 01:48:28;;;;;;;25.73;15.48;;;;;;;;;;5051138;28;20021;-79
2021/01/16 01:50:54;;;;;;;22.95;13.63;;;;;;;;;;5051159;28;20024;-79
2021/01/16 01:53:21;;;;;;;25.60;14.32;;;;;;;;;;5050868;28;20031;-80
2021/01/16 01:55:50;;;;;;;22.65;12.88;;;;;;;;;;5051017;28;20053;-80
2021/01/16 01:58:17;;;;;;;24.10;14.20;;;;;;;;;;5052147;28;20017;-80
2021/01/16 02:00:43;;;;;;;20.75;13.35;;;;;;;;;;5052056;28;20479;-80
2021/01/16 02:03:11;;;;;;;23.33;13.60;;;;;;;;;;5050769;28;20017;-80
2021/01/16 02:05:37;;;;;;;24.17;13.15;;;;;;;;;;5052153;28;20347;-80
2021/01/16 02:08:03;;;;;;;22.17;12.23;;;;;;;;;;5050757;28;20028;-80
2021/01/16 02:10:29;;;;;;;25.02;13.77;;;;;;;;;;5050735;28;20421;-79
2021/01/16 02:12:58;;;;;;;22.20;13.15;;;;;;;;;;5052778;28;20338;-80
2021/01/16 02:15:25;;;;;;;23.77;13.38;;;;;;;;;;5056550;28;20102;-79
2021/01/16 02:18:01;;;;;;;21.40;12.40;;;;;;;;;;5056471;28;20013;-79
2021/01/16 02:20:28;;;;;;;21.48;13.15;;;;;;;;;;5054716;28;20032;-79
2021/01/16 02:22:54;;;;;;;22.80;13.88;;;;;;;;;;5056334;28;20017;-79
2021/01/16 02:25:34;;;;;;;23.45;14.18;;;;;;;;;;5056317;28;20021;-80
2021/01/16 02:28:02;;;;;;;23.05;13.98;;;;;;;;;;5055306;28;20091;-80
2021/01/16 02:30:29;;;;;;;20.13;12.18;;;;;;;;;;5055311;28;20057;-80
2021/01/16 02:32:57;;;;;;;20.02;11.52;;;;;;;;;;5056204;28;20507;-80
2021/01/16 02:35:23;;;;;;;22.27;13.98;;;;;;;;;;5056114;28;20036;-80
2021/01/16 02:37:55;;;;;;;21.50;13.07;;;;;;;;;;5056440;28;20449;-80
2021/01/16 02:40:21;;;;;;;20.42;11.95;;;;;;;;;;5054552;28;20025;-81
2021/01/16 02:42:56;;;;;;;21.67;12.90;;;;;;;;;;5054775;28;20045;-81
2021/01/16 02:45:25;;;;;;;24.08;14.43;;;;;;;;;;5056150;28;20449;-81
2021/01/16 02:47:54;;;;;;;28.00;13.30;;;;;;;;;;5055846;28;20017;-79
2021/01/16 02:50:21;;;;;;;20.65;12.48;;;;;;;;;;5054221;28;20357;-80
2021/01/16 02:52:48;;;;;;;26.65;14.52;;;;;;;;;;5054426;28;20017;-80
2021/01/16 02:55:15;;;;;;;21.88;12.57;;;;;;;;;;5054002;28;20025;-80
2021/01/16 02:57:42;;;;;;;21.10;12.77;;;;;;;;;;5054591;28;20545;-80
2021/01/16 03:00:09;;;;;;;25.67;14.32;;;;;;;;;;5054102;28;20462;-80
2021/01/16 03:02:35;;;;;;;28.73;15.95;;;;;;;;;;5054199;28;20021;-80
2021/01/16 03:05:01;;;;;;;26.40;13.70;;;;;;;;;;5054289;28;20057;-80
2021/01/16 03:07:28;;;;;;;21.42;13.15;;;;;;;;;;5053909;28;20100;-80
2021/01/16 03:09:54;;;;;;;23.95;13.88;;;;;;;;;;5055655;28;20473;-80
2021/01/16 03:12:20;;;;;;;24.55;13.57;;;;;;;;;;5053831;28;20021;-80
2021/01/16 03:14:56;;;;;;;22.02;13.40;;;;;;;;;;5055225;28;20021;-80
2021/01/16 03:17:25;;;;;;;23.05;12.23;;;;;;;;;;5053697;28;20107;-80
2021/01/16 03:19:51;;;;;;;24.83;14.32;;;;;;;;;;5053989;28;20021;-80
2021/01/16 03:22:28;;;;;;;21.27;12.65;;;;;;;;;;5054959;28;20017;-80
2021/01/16 03:24:55;;;;;;;22.80;13.32;;;;;;;;;;5053847;28;20465;-80
2021/01/16 03:27:21;;;;;;;23.17;13.18;;;;;;;;;;5053482;28;20048;-80
2021/01/16 03:29:47;;;;;;;24.88;13.93;;;;;;;;;;5055078;28;20024;-80
2021/01/16 03:32:14;;;;;;;21.90;13.23;;;;;;;;;;5053414;28;20079;-81
2021/01/16 03:34:41;;;;;;;22.98;13.68;;;;;;;;;;5054965;28;20027;-80
2021/01/16 03:37:08;;;;;;;20.83;12.63;;;;;;;;;;5053348;28;20158;-80
2021/01/16 03:39:34;;;;;;;23.40;12.93;;;;;;;;;;5053538;28;20016;-80
2021/01/16 03:42:00;;;;;;;23.60;14.05;;;;;;;;;;5053159;28;20048;-80
2021/01/16 03:44:26;;;;;;;23.90;13.55;;;;;;;;;;5053282;28;20033;-80
2021/01/16 03:46:52;;;;;;;23.10;13.68;;;;;;;;;;5054700;28;20052;-80
2021/01/16 03:49:18;;;;;;;25.02;13.98;;;;;;;;;;5052793;28;20433;-79
2021/01/16 03:51:44;;;;;;;26.42;13.48;;;;;;;;;;5054621;28;20469;-79
2021/01/16 03:54:10;;;;;;;22.90;14.45;;;;;;;;;;5052914;28;20020;-79
2021/01/16 03:56:36;;;;;;;21.70;13.25;;;;;;;;;;5054531;28;20035;-80
2021/01/16 03:59:04;;;;;;;23.90;13.68;;;;;;;;;;5053009;28;20071;-79
2021/01/16 04:01:30;;;;;;;24.08;13.95;;;;;;;;;;5052826;28;20052;-79
2021/01/16 04:03:56;;;;;;;23.33;14.13;;;;;;;;;;5053021;28;20021;-80
2021/01/16 04:06:22;;;;;;;26.95;14.65;;;;;;;;;;5052851;28;20075;-80
2021/01/16 04:08:48;;;;;;;23.45;13.43;;;;;;;;;;5052973;28;20075;-80
2021/01/16 04:11:14;;;;;;;23.55;14.13;;;;;;;;;;5053894;28;20021;-79
2021/01/16 04:13:40;;;;;;;24.20;14.57;;;;;;;;;;5052795;28;20021;-80
2021/01/16 04:16:07;;;;;;;24.52;14.68;;;;;;;;;;5052498;28;20087;-80
2021/01/16 04:18:33;;;;;;;25.92;14.10;;;;;;;;;;5052240;28;20028;-80
2021/01/16 04:20:59;;;;;;;25.35;15.45;;;;;;;;;;5052701;28;20454;-79
2021/01/16 04:23:25;;;;;;;25.60;14.57;;;;;;;;;;5052436;28;20397;-80
2021/01/16 04:25:51;;;;;;;25.42;14.98;;;;;;;;;;5053946;28;20043;-79
2021/01/16 04:28:17;;;;;;;25.70;14.52;;;;;;;;;;5052237;28;20043;-79
2021/01/16 04:30:43;;;;;;;29.27;16.33;;;;;;;;;;5052487;28;20364;-79
2021/01/16 04:33:09;;;;;;;25.30;15.27;;;;;;;;;;5052537;28;20021;-80
2021/01/16 04:35:36;;;;;;;23.58;14.73;;;;;;;;;;5053831;28;20039;-80
2021/01/16 04:38:02;;;;;;;26.15;14.13;;;;;;;;;;5052476;28;20021;-80
2021/01/16 04:40:28;;;;;;;26.35;14.95;;;;;;;;;;5052562;28;20116;-79
2021/01/16 04:42:54;;;;;;;24.80;14.18;;;;;;;;;;5053510;28;20423;-79
2021/01/16 04:45:21;;;;;;;24.70;15.27;;;;;;;;;;5052966;28;20021;-79
2021/01/16 04:47:48;;;;;;;26.00;15.15;;;;;;;;;;5052152;28;20017;-80
2021/01/16 04:50:14;;;;;;;24.17;15.00;;;;;;;;;;5052972;28;20020;-79
2021/01/16 04:52:41;;;;;;;26.00;15.40;;;;;;;;;;5052147;28;20107;-80
2021/01/16 04:55:08;;;;;;;25.63;15.88;;;;;;;;;;5053434;28;20035;-80
2021/01/16 04:57:34;;;;;;;24.60;16.00;;;;;;;;;;5053143;28;20025;-80
2021/01/16 05:00:00;;;;;;;26.80;14.85;;;;;;;;;;5051692;28;20017;-80
2021/01/16 05:02:31;;;;;;;25.83;14.88;;;;;;;;;;5051724;28;20021;-79
2021/01/16 05:04:59;;;;;;;25.25;15.05;;;;;;;;;;5053373;28;20445;-80
2021/01/16 05:07:26;;;;;;;25.35;15.50;;;;;;;;;;5052917;28;20027;-79
2021/01/16 05:09:52;;;;;;;25.25;16.08;;;;;;;;;;5051780;28;20025;-80
2021/01/16 05:12:28;;;;;;;25.15;15.90;;;;;;;;;;5051513;28;20025;-80
2021/01/16 05:14:57;;;;;;;25.90;15.05;;;;;;;;;;5051596;28;20024;-80
2021/01/16 05:17:24;;;;;;;24.98;14.80;;;;;;;;;;5052712;28;20021;-80
2021/01/16 05:19:52;;;;;;;25.88;14.15;;;;;;;;;;5051595;28;20021;-80
2021/01/16 05:22:18;;;;;;;22.92;14.40;;;;;;;;;;5051280;28;20039;-79
2021/01/16 05:24:44;;;;;;;27.38;15.57;;;;;;;;;;5051482;28;20024;-80
2021/01/16 05:27:13;;;;;;;23.40;14.10;;;;;;;;;;5052317;28;20024;-79
2021/01/16 05:29:43;;;;;;;25.52;14.30;;;;;;;;;;5051269;28;20021;-79
2021/01/16 05:32:09;;;;;;;25.60;13.98;;;;;;;;;;5051497;28;20028;-80
2021/01/16 05:34:35;;;;;;;30.45;15.60;;;;;;;;;;5051211;28;20025;-80
2021/01/16 05:37:01;;;;;;;25.25;15.35;;;;;;;;;;5051425;28;20413;-80
2021/01/16 05:39:28;;;;;;;28.13;15.77;;;;;;;;;;5051077;28;20031;-80
2021/01/16 05:42:01;;;;;;;22.90;14.25;;;;;;;;;;5052349;28;20052;-81
2021/01/16 05:44:27;;;;;;;26.15;15.32;;;;;;;;;;5051093;28;20021;-80
2021/01/16 05:46:54;;;;;;;28.08;14.18;;;;;;;;;;5050726;28;20032;-80
2021/01/16 05:49:23;;;;;;;24.63;14.95;;;;;;;;;;5050835;28;20487;-80
2021/01/16 05:51:50;;;;;;;24.17;15.45;;;;;;;;;;5051230;28;20469;-79
2021/01/16 05:54:19;;;;;;;26.30;14.90;;;;;;;;;;5050785;28;20056;-80
2021/01/16 05:56:46;;;;;;;24.60;14.50;;;;;;;;;;5051281;28;20124;-80
2021/01/16 05:59:16;;;;;;;26.45;15.32;;;;;;;;;;5051114;28;20056;-80
2021/01/16 06:01:43;;;;;;;22.15;14.88;;;;;;;;;;5052360;28;20017;-81
2021/01/16 06:04:14;;;;;;;27.88;15.38;;;;;;;;;;5051145;28;20104;-81
2021/01/16 06:06:41;;;;;;;24.70;13.88;;;;;;;;;;5050953;28;20051;-81
2021/01/16 06:09:13;;;;;;;26.70;15.65;;;;;;;;;;5051643;28;20024;-81
2021/01/16 06:11:39;;;;;;;23.65;15.50;;;;;;;;;;5051886;28;20020;-80
2021/01/16 06:14:07;;;;;;;22.95;14.50;;;;;;;;;;5050494;28;20052;-80
2021/01/16 06:16:46;;;;;;;26.90;15.32;;;;;;;;;;5050606;28;20017;-80
2021/01/16 06:19:15;;;;;;;25.98;15.60;;;;;;;;;;5050609;28;20021;-80
2021/01/16 06:21:43;;;;;;;24.80;15.47;;;;;;;;;;5051746;28;20017;-81
2021/01/16 06:24:13;;;;;;;24.52;14.25;;;;;;;;;;5050867;28;20025;-81
2021/01/16 06:26:41;;;;;;;23.65;14.15;;;;;;;;;;5050483;28;20521;-80
2021/01/16 06:29:07;;;;;;;24.08;14.15;;;;;;;;;;5050840;28;20450;-81
2021/01/16 06:31:34;;;;;;;31.35;14.43;;;;;;;;;;5050250;28;20021;-80
2021/01/16 06:34:01;;;;;;;24.95;14.52;;;;;;;;;;5050361;28;20024;-79
2021/01/16 06:36:31;;;;;;;25.08;15.73;;;;;;;;;;5050384;28;20075;-80
2021/01/16 06:38:57;;;;;;;;;;;;;;;;;;5052704;28;20033;-79
2021/01/16 06:41:28;;;;;;;24.83;15.90;;;;;;;;;;5050533;28;20373;-79
2021/01/16 06:43:54;;;;;;;24.08;14.07;;;;;;;;;;5050457;28;20489;-80
2021/01/16 06:46:32;;;;;;;25.27;14.93;;;;;;;;;;5051170;28;20029;-79
2021/01/16 06:49:00;;;;;;;27.98;15.93;;;;;;;;;;5054073;28;20028;-80
2021/01/16 06:51:28;;;;;;;24.60;14.60;;;;;;;;;;5051817;28;20036;-80
2021/01/16 06:54:03;;;;;;;27.42;16.38;;;;;;;;;;5050488;28;20031;-80
2021/01/16 06:56:31;;;;;;;27.02;14.55;;;;;;;;;;5050318;28;20021;-79
2021/01/16 06:58:59;;;;;;;25.23;14.85;;;;;;;;;;5052139;28;20025;-79
2021/01/16 07:01:29;;;;;;;22.48;13.77;;;;;;;;;;5055359;28;20058;-79
2021/01/16 07:03:58;;;;;;;25.05;15.63;;;;;;;;;;5054221;28;20107;-79
2021/01/16 07:06:24;;;;;;;25.10;14.25;;;;;;;;;;5053898;28;20484;-79
2021/01/16 07:08:51;;;;;;;27.92;13.88;;;;;;;;;;5054041;28;20021;-80
2021/01/16 07:11:17;;;;;;;27.42;15.65;;;;;;;;;;5054099;28;20526;-79
2021/01/16 07:13:43;;;;;;;24.10;15.68;;;;;;;;;;5053660;28;20030;-79
2021/01/16 07:16:10;;;;;;;25.15;15.88;;;;;;;;;;5055239;28;20017;-79
2021/01/16 07:18:38;;;;;;;28.67;15.18;;;;;;;;;;5053623;28;20017;-80
2021/01/16 07:21:04;;;;;;;26.05;15.07;;;;;;;;;;5053778;28;20028;-80
2021/01/16 07:23:31;;;;;;;27.80;15.30;;;;;;;;;;5054868;28;20135;-78
2021/01/16 07:25:59;;;;;;;26.67;15.18;;;;;;;;;;5053692;28;20055;-79
2021/01/16 07:28:26;;;;;;;24.15;14.60;;;;;;;;;;5054354;28;20088;-80
2021/01/16 07:30:52;;;;;;;25.70;14.80;;;;;;;;;;5053674;28;20078;-79
2021/01/16 07:33:19;;;;;;;28.05;16.05;;;;;;;;;;5053548;28;20032;-80
2021/01/16 07:35:51;;;;;;;27.10;15.40;;;;;;;;;;5053388;28;20021;-81
2021/01/16 07:38:20;;;;;;;26.50;15.07;;;;;;;;;;5053530;28;20055;-80
2021/01/16 07:40:47;;;;;;;25.15;14.98;;;;;;;;;;5054592;28;20024;-80
2021/01/16 07:43:32;;;;;;;25.88;15.82;;;;;;;;;;5054522;28;20501;-80
2021/01/16 07:46:01;;;;;;;28.75;16.42;;;;;;;;;;5054594;28;20057;-80
2021/01/16 07:48:32;;;;;;;27.58;16.20;;;;;;;;;;5054505;28;20154;-80
2021/01/16 07:50:59;;;;;;;29.23;16.52;;;;;;;;;;5054634;28;20024;-79
2021/01/16 07:53:26;;;;;;;25.88;14.95;;;;;;;;;;5052904;28;20105;-80
2021/01/16 07:56:00;;;;;;;29.38;15.40;;;;;;;;;;5053110;28;20021;-80
2021/01/16 07:58:35;;;;;;;25.65;15.25;;;;;;;;;;5052890;28;20021;-80
2021/01/16 08:01:01;;;;;;;26.05;15.38;;;;;;;;;;5054123;28;20360;-80
2021/01/16 08:03:45;;;;;;;25.67;14.52;;;;;;;;;;5054175;28;20016;-80
2021/01/16 08:06:14;;;;;;;27.08;13.77;;;;;;;;;;5053152;28;20501;-81
2021/01/16 08:08:53;;;;;;;29.23;17.85;;;;;;;;;;5052349;28;20021;-81
2021/01/16 08:11:22;;;;;;;27.40;16.73;;;;;;;;;;5052281;28;20017;-80
2021/01/16 08:13:48;;;;;;;25.70;15.70;;;;;;;;;;5052671;28;20094;-80
2021/01/16 08:16:14;;;;;;;29.25;17.33;;;;;;;;;;5053050;28;20021;-80
2021/01/16 08:18:46;;;;;;;27.65;16.00;;;;;;;;;;5052645;28;20020;-81
2021/01/16 08:21:14;;;;;;;31.17;17.35;;;;;;;;;;5052804;28;20017;-80
2021/01/16 08:23:48;;;;;;;26.65;15.45;;;;;;;;;;5053707;28;20063;-80
2021/01/16 08:26:14;;;;;;;27.40;17.45;;;;;;;;;;5053553;28;20409;-80
2021/01/16 08:28:43;;;;;;;22.55;14.15;;;;;;;;;;5053563;28;20009;-82
2021/01/16 08:31:23;;;;;;;24.85;15.82;;;;;;;;;;5053606;28;20032;-80
2021/01/16 08:33:49;;;;;;;29.23;15.82;;;;;;;;;;5053712;28;20025;-80
2021/01/16 08:36:19;;;;;;;25.58;16.25;;;;;;;;;;5054814;28;20025;-79
2021/01/16 08:38:45;;;;;;;;;;;;;;;;;;5055750;28;20132;-80
2021/01/16 08:41:11;;;;;;;24.75;14.20;;;;;;;;;;5053211;28;20403;-80
2021/01/16 08:43:43;;;;;;;28.83;16.27;;;;;;;;;;5053326;28;20080;-80
2021/01/16 08:46:10;;;;;;;25.13;14.38;;;;;;;;;;5053080;28;20465;-79
2021/01/16 08:48:38;;;;;;;25.70;15.32;;;;;;;;;;5051709;28;20549;-79
2021/01/16 08:51:22;;;;;;;26.73;16.20;;;;;;;;;;5060754;28;20016;-79
2021/01/16 08:53:48;;;;;;;28.45;15.50;;;;;;;;;;5064079;28;20020;-79
2021/01/16 08:56:24;;;;;;;26.65;15.18;;;;;;;;;;5060481;28;20020;-79
2021/01/16 08:58:50;;;;;;;27.40;15.32;;;;;;;;;;5061047;28;20021;-81
2021/01/16 09:01:17;;;;;;;28.35;16.98;;;;;;;;;;5061580;28;20056;-80
2021/01/16 09:03:43;;;;;;;28.38;16.75;;;;;;;;;;5058417;28;20479;-80
2021/01/16 09:06:09;;;;;;;32.13;15.60;;;;;;;;;;5051873;28;20029;-80
2021/01/16 09:08:35;;;;;;;24.55;14.80;;;;;;;;;;5052960;28;20013;-80
2021/01/16 09:11:11;;;;;;;27.25;16.35;;;;;;;;;;5052944;28;20017;-80
2021/01/16 09:13:47;;;;;;;25.02;15.60;;;;;;;;;;5055705;28;20050;-80
2021/01/16 09:16:29;;;;;;;32.28;16.75;;;;;;;;;;5062465;28;20339;-79
2021/01/16 09:18:56;;;;;;;31.05;17.45;;;;;;;;;;5061489;28;20013;-79
2021/01/16 09:21:24;;;;;;;27.35;15.07;;;;;;;;;;5062373;28;20028;-79
2021/01/16 09:23:50;;;;;;;24.70;14.82;;;;;;;;;;5059585;28;20023;-79
2021/01/16 09:26:23;;;;;;;29.40;16.73;;;;;;;;;;5055792;28;20028;-79
2021/01/16 09:28:53;;;;;;;29.13;16.02;;;;;;;;;;5056418;28;20024;-79
2021/01/16 09:31:19;;;;;;;;;;;;;;;;;;5061867;28;20074;-79
2021/01/16 09:33:46;;;;;;;26.10;15.15;;;;;;;;;;5061021;28;19959;-79
2021/01/16 09:36:12;;;;;;;31.40;16.77;;;;;;;;;;5059496;28;20021;-79
2021/01/16 09:38:39;;;;;;;25.90;15.52;;;;;;;;;;5063413;28;20013;-79
2021/01/16 09:41:05;;;;;;;26.10;16.05;;;;;;;;;;5071258;28;20024;-79
2021/01/16 09:43:39;;;;;;;27.20;16.38;;;;;;;;;;5070757;28;20048;-79
2021/01/16 09:46:05;;;;;;;30.00;17.50;;;;;;;;;;5070919;28;20032;-79
2021/01/16 09:48:31;;;;;;;25.60;15.20;;;;;;;;;;5070977;28;20013;-79
2021/01/16 09:50:57;;;;;;;25.80;16.55;;;;;;;;;;5068623;28;20027;-79
2021/01/16 09:53:25;;;;;;;22.65;15.70;;;;;;;;;;5062351;28;20020;-78
2021/01/16 09:55:53;;;;;;;26.40;17.08;;;;;;;;;;5059385;28;20017;-78
2021/01/16 09:58:42;;;;;;;27.48;16.23;;;;;;;;;;5060510;28;20346;-78
2021/01/16 10:01:14;;;;;;;24.40;15.25;;;;;;;;;;5059576;28;20048;-79
2021/01/16 10:03:40;;;;;;;29.70;17.42;;;;;;;;;;5058922;28;20062;-79
2021/01/16 10:06:07;;;;;;;22.50;14.07;;;;;;;;;;5062069;28;20110;-79
2021/01/16 10:08:33;;;;;;;28.13;17.08;;;;;;;;;;5060879;28;20043;-80
2021/01/16 10:11:00;;;;;;;26.40;16.40;;;;;;;;;;5060909;28;20575;-81
2021/01/16 10:13:30;;;;;;;30.88;17.38;;;;;;;;;;5056954;28;20020;-81
2021/01/16 10:15:58;;;;;;;28.85;16.33;;;;;;;;;;5052170;28;20025;-81
2021/01/16 10:18:26;;;;;;;28.00;16.38;;;;;;;;;;5053864;28;20095;-80
2021/01/16 10:21:12;;;;;;;25.25;16.08;;;;;;;;;;5070105;28;20020;-82
2021/01/16 10:23:40;;;;;;;29.30;17.85;;;;;;;;;;5068678;28;20028;-82
2021/01/16 10:26:13;;;;;;;33.63;17.70;;;;;;;;;;5070201;28;20021;-79
2021/01/16 10:28:40;;;;;;;32.00;17.27;;;;;;;;;;5070026;28;20021;-82
2021/01/16 10:31:08;;;;;;;27.10;15.57;;;;;;;;;;5070103;28;20048;-80
2021/01/16 10:33:38;;;;;;;39.00;19.20;;;;;;;;;;5070767;28;20465;-79
2021/01/16 10:36:06;;;;;;;27.73;16.08;;;;;;;;;;5076191;28;20388;-79
2021/01/16 10:38:39;;;;;;;28.38;16.38;;;;;;;;;;5075321;28;20013;-80
2021/01/16 10:41:07;;;;;;;28.80;16.08;;;;;;;;;;5073732;28;20052;-80
2021/01/16 10:43:33;;;;;;;27.27;16.00;;;;;;;;;;5074352;28;20052;-80
2021/01/16 10:46:07;;;;;;;27.45;15.35;;;;;;;;;;5077720;28;20360;-79
2021/01/16 10:48:37;;;;;;;28.35;16.10;;;;;;;;;;5075215;28;20027;-81
2021/01/16 10:51:05;;;;;;;31.38;19.23;;;;;;;;;;5075357;28;20016;-79
2021/01/16 10:53:35;;;;;;;27.65;16.23;;;;;;;;;;5076081;28;20020;-80
2021/01/16 10:56:01;;;;;;;;;;;;;;;;;;5074555;28;20032;-78
2021/01/16 10:58:30;;;;;;;29.17;16.05;;;;;;;;;;5073571;28;19904;-79
2021/01/16 11:00:58;;;;;;;29.23;17.00;;;;;;;;;;5073483;28;20027;-81
2021/01/16 11:03:27;;;;;;;26.95;15.85;;;;;;;;;;5075056;28;20574;-81
2021/01/16 11:05:58;;;;;;;28.40;14.45;;;;;;;;;;5075588;28;20024;-81
2021/01/16 11:08:31;;;;;;;28.50;14.35;;;;;;;;;;5075270;28;20013;-81
2021/01/16 11:10:57;;;;;;;25.90;14.48;;;;;;;;;;5076616;28;20036;-81
2021/01/16 11:13:24;;;;;;;26.90;14.55;;;;;;;;;;5076386;28;20012;-81
2021/01/16 11:15:51;;;;;;;27.90;15.55;;;;;;;;;;5075772;28;20186;-85
2021/01/16 11:18:27;;;;;;;26.48;15.18;;;;;;;;;;5076652;28;20032;-82
2021/01/16 11:20:58;;;;;;;27.25;15.23;;;;;;;;;;5075753;28;20046;-82
2021/01/16 11:23:31;;;;;;;22.83;14.15;;;;;;;;;;5075890;28;20020;-82
2021/01/16 11:25:58;;;;;;;25.60;13.63;;;;;;;;;;5075054;28;20364;-82
2021/01/16 11:28:24;;;;;;;26.88;15.35;;;;;;;;;;5073854;28;20032;-82
2021/01/16 11:30:52;;;;;;;23.60;13.85;;;;;;;;;;5073887;28;20032;-82
2021/01/16 11:33:27;;;;;;;25.70;15.52;;;;;;;;;;5074394;28;20045;-81
2021/01/16 11:36:14;;;;;;;24.48;13.70;;;;;;;;;;5074851;28;20043;-82
2021/01/16 11:38:40;;;;;;;24.45;15.15;;;;;;;;;;5074357;28;20023;-81
2021/01/16 11:41:07;;;;;;;23.08;13.05;;;;;;;;;;5074703;28;20046;-83
2021/01/16 11:43:33;;;;;;;22.60;13.00;;;;;;;;;;5074751;28;20044;-81
2021/01/16 11:46:09;;;;;;;23.45;13.32;;;;;;;;;;5075040;28;20095;-83
2021/01/16 11:48:36;;;;;;;22.83;13.35;;;;;;;;;;5074033;28;20025;-83
2021/01/16 11:51:18;;;;;;;24.65;13.57;;;;;;;;;;5075519;28;20021;-81
2021/01/16 11:53:45;;;;;;;23.83;13.63;;;;;;;;;;5076989;28;20020;-81
2021/01/16 11:56:12;;;;;;;23.67;13.25;;;;;;;;;;5075679;28;20024;-83
2021/01/16 11:58:38;;;;;;;21.35;12.77;;;;;;;;;;5075424;28;20019;-83
2021/01/16 12:01:05;;;;;;;20.90;12.18;;;;;;;;;;5074381;28;20586;-82
2021/01/16 12:03:31;;;;;;;23.40;12.60;;;;;;;;;;5075577;28;20467;-83
2021/01/16 12:05:58;;;;;;;23.38;13.40;;;;;;;;;;5073968;28;20368;-80
2021/01/16 12:08:24;;;;;;;20.85;12.13;;;;;;;;;;5073589;28;20020;-80
2021/01/16 12:10:53;;;;;;;24.05;12.85;;;;;;;;;;5073874;28;20043;-81
2021/01/16 12:13:19;;;;;;;19.67;12.25;;;;;;;;;;5075063;28;20070;-84
2021/01/16 12:15:45;;;;;;;22.70;12.30;;;;;;;;;;5074668;28;20024;-82
2021/01/16 12:18:12;;;;;;;21.45;11.93;;;;;;;;;;5074799;28;20024;-82
2021/01/16 12:20:39;;;;;;;21.85;12.15;;;;;;;;;;5073597;28;20063;-81
2021/01/16 12:23:05;;;;;;;28.75;14.65;;;;;;;;;;5068150;28;20016;-82
2021/01/16 12:25:33;;;;;;;22.15;12.95;;;;;;;;;;5053817;28;20032;-81
2021/01/16 12:27:59;;;;;;;22.45;14.43;;;;;;;;;;5052898;28;20020;-81
2021/01/16 12:30:33;;;;;;;21.75;12.05;;;;;;;;;;5052665;28;20024;-83
2021/01/16 12:32:59;;;;;;;21.63;12.32;;;;;;;;;;5053312;28;20802;-82
2021/01/16 12:35:26;;;;;;;19.05;11.20;;;;;;;;;;5053330;28;20594;-81
2021/01/16 12:37:52;;;;;;;19.13;12.18;;;;;;;;;;5053498;28;20025;-81
2021/01/16 12:40:20;;;;;;;14.95;9.63;;;;;;;;;;5052357;28;20032;-81
2021/01/16 12:42:46;;;;;;;20.58;11.05;;;;;;;;;;5053462;28;20037;-80
2021/01/16 12:45:17;;;;;;;17.15;10.13;;;;;;;;;;5053912;28;20029;-80
2021/01/16 12:47:45;;;;;;;18.05;10.30;;;;;;;;;;5051652;28;20031;-79
2021/01/16 12:50:11;;;;;;;19.27;10.32;;;;;;;;;;5052280;28;20027;-80
2021/01/16 12:52:37;;;;;;;16.25;9.27;;;;;;;;;;5051359;28;20435;-80
2021/01/16 12:55:05;;;;;;;17.05;10.00;;;;;;;;;;5052089;28;20040;-84
2021/01/16 12:57:32;;;;;;;23.00;11.27;;;;;;;;;;5054107;28;20021;-81
2021/01/16 12:59:59;;;;;;;18.05;10.18;;;;;;;;;;5053397;28;20028;-81
2021/01/16 13:02:25;;;;;;;17.98;10.55;;;;;;;;;;5052954;28;20017;-82
2021/01/16 13:04:55;;;;;;;16.20;9.25;;;;;;;;;;5051506;28;20059;-82
2021/01/16 13:07:22;;;;;;;15.35;8.65;;;;;;;;;;5058699;28;20017;-83
2021/01/16 13:09:48;;;;;;;15.38;9.18;;;;;;;;;;5065113;28;20013;-81
2021/01/16 13:12:14;;;;;;;13.82;8.02;;;;;;;;;;5063387;28;20017;-82
2021/01/16 13:14:47;;;;;;;14.20;8.45;;;;;;;;;;5064111;28;20075;-82
2021/01/16 13:17:16;;;;;;;15.40;9.00;;;;;;;;;;5067169;28;20013;-81
2021/01/16 13:19:43;;;;;;;14.30;8.82;;;;;;;;;;5066790;28;20042;-80
2021/01/16 13:22:14;;;;;;;16.80;9.18;;;;;;;;;;5067338;28;20012;-81
2021/01/16 13:24:40;;;;;;;14.75;8.07;;;;;;;;;;5062131;28;20028;-81
2021/01/16 13:27:11;;;;;;;14.20;7.47;;;;;;;;;;5065192;28;20035;-81
2021/01/16 13:29:38;;;;;;;15.20;8.60;;;;;;;;;;5067031;28;20024;-81
2021/01/16 13:32:05;;;;;;;17.95;8.00;;;;;;;;;;5064743;28;20016;-82
2021/01/16 13:34:31;;;;;;;12.93;7.93;;;;;;;;;;5065159;28;20017;-81
2021/01/16 13:36:57;;;;;;;15.00;8.45;;;;;;;;;;5065252;28;20051;-81
2021/01/16 13:39:24;;;;;;;13.85;8.23;;;;;;;;;;5066331;28;20020;-81
2021/01/16 13:41:52;;;;;;;14.27;7.55;;;;;;;;;;5071005;28;21126;-78
2021/01/16 13:44:25;;;;;;;15.52;8.10;;;;;;;;;;5071905;28;20039;-80
2021/01/16 13:46:52;;;;;;;18.27;9.30;;;;;;;;;;5071370;28;20035;-79
2021/01/16 13:49:28;;;;;;;12.88;7.38;;;;;;;;;;5071372;28;20073;-79
2021/01/16 13:52:08;;;;;;;14.57;7.78;;;;;;;;;;5071285;28;20016;-81
2021/01/16 13:54:36;;;;;;;13.52;8.15;;;;;;;;;;5072121;28;20376;-80
2021/01/16 13:57:03;;;;;;;15.60;8.93;;;;;;;;;;5071011;28;20056;-81
2021/01/16 13:59:30;;;;;;;12.88;7.50;;;;;;;;;;5071016;28;20024;-81
2021/01/16 14:01:57;;;;;;;15.20;8.25;;;;;;;;;;5071185;28;20020;-81
2021/01/16 14:04:23;;;;;;;13.38;7.80;;;;;;;;;;5070989;28;20031;-80
2021/01/16 14:06:50;;;;;;;14.45;7.95;;;;;;;;;;5070777;28;20035;-81
2021/01/16 14:09:21;;;;;;;15.38;8.88;;;;;;;;;;5070537;28;20027;-80
2021/01/16 14:11:47;;;;;;;15.60;9.13;;;;;;;;;;5070444;28;20017;-81
2021/01/16 14:14:20;;;;;;;14.13;7.57;;;;;;;;;;5070875;28;20069;-81
2021/01/16 14:16:46;;;;;;;16.02;9.30;;;;;;;;;;5070805;28;20024;-81
2021/01/16 14:19:15;;;;;;;14.90;7.85;;;;;;;;;;5072181;28;20020;-80
2021/01/16 14:21:42;;;;;;;14.80;8.30;;;;;;;;;;5070726;28;20153;-81
2021/01/16 14:24:11;;;;;;;19.00;8.43;;;;;;;;;;5054215;28;20365;-81
2021/01/16 14:26:37;;;;;;;13.77;8.32;;;;;;;;;;5050827;28;20356;-80